sensor_id;sensor_type;location;lat;lon;timestamp;pressure;altitude;pressure_sealevel;temperature
53667;BMP280;39568;51.026;5.468;2023-08-17T00:00:17;101024.81;;;19.27
53667;BMP280;39568;51.026;5.468;2023-08-17T00:02:44;101027.13;;;19.31
53667;BMP280;39568;51.026;5.468;2023-08-17T00:05:11;101022.47;;;19.24
53667;BMP280;39568;51.026;5.468;2023-08-17T00:07:37;101026.06;;;19.26
53667;BMP280;39568;51.026;5.468;2023-08-17T00:10:05;101018.84;;;19.21
53667;BMP280;39568;51.026;5.468;2023-08-17T00:12:33;101021.41;;;19.19
53667;BMP280;39568;51.026;5.468;2023-08-17T00:14:59;101019.94;;;19.18
53667;BMP280;39568;51.026;5.468;2023-08-17T00:17:26;101017.41;;;19.13
53667;BMP280;39568;51.026;5.468;2023-08-17T00:19:53;101014.56;;;19.11
53667;BMP280;39568;51.026;5.468;2023-08-17T00:22:19;101016.88;;;19.14
53667;BMP280;39568;51.026;5.468;2023-08-17T00:24:46;101017.75;;;19.24
53667;BMP280;39568;51.026;5.468;2023-08-17T00:27:12;101019.78;;;19.24
53667;BMP280;39568;51.026;5.468;2023-08-17T00:29:40;101007.53;;;19.30
53667;BMP280;39568;51.026;5.468;2023-08-17T00:32:07;101012.03;;;19.28
53667;BMP280;39568;51.026;5.468;2023-08-17T00:34:34;101018.84;;;19.37
53667;BMP280;39568;51.026;5.468;2023-08-17T00:37:00;101015.59;;;19.38
53667;BMP280;39568;51.026;5.468;2023-08-17T00:39:27;101009.50;;;19.45
53667;BMP280;39568;51.026;5.468;2023-08-17T00:41:54;101015.78;;;19.55
53667;BMP280;39568;51.026;5.468;2023-08-17T00:44:20;101016.50;;;19.48
53667;BMP280;39568;51.026;5.468;2023-08-17T00:46:49;101018.84;;;19.44
53667;BMP280;39568;51.026;5.468;2023-08-17T00:49:15;101013.81;;;19.41
53667;BMP280;39568;51.026;5.468;2023-08-17T00:51:42;101011.09;;;19.48
53667;BMP280;39568;51.026;5.468;2023-08-17T00:54:10;101020.63;;;19.57
53667;BMP280;39568;51.026;5.468;2023-08-17T00:56:37;101022.06;;;19.58
53667;BMP280;39568;51.026;5.468;2023-08-17T00:59:04;101022.59;;;19.49
53667;BMP280;39568;51.026;5.468;2023-08-17T01:01:31;101022.78;;;19.66
53667;BMP280;39568;51.026;5.468;2023-08-17T01:03:59;101031.75;;;19.76
53667;BMP280;39568;51.026;5.468;2023-08-17T01:06:25;101030.66;;;19.64
53667;BMP280;39568;51.026;5.468;2023-08-17T01:08:53;101030.13;;;19.73
53667;BMP280;39568;51.026;5.468;2023-08-17T01:11:25;101034.44;;;19.68
53667;BMP280;39568;51.026;5.468;2023-08-17T01:13:58;101030.84;;;19.81
53667;BMP280;39568;51.026;5.468;2023-08-17T01:16:32;101020.97;;;19.61
53667;BMP280;39568;51.026;5.468;2023-08-17T01:19:04;101026.53;;;19.78
53667;BMP280;39568;51.026;5.468;2023-08-17T01:21:37;101021.66;;;19.69
53667;BMP280;39568;51.026;5.468;2023-08-17T01:24:06;101020.91;;;19.83
53667;BMP280;39568;51.026;5.468;2023-08-17T01:26:33;101023.78;;;19.85
53667;BMP280;39568;51.026;5.468;2023-08-17T01:29:00;101022.34;;;19.92
53667;BMP280;39568;51.026;5.468;2023-08-17T01:31:30;101018.94;;;19.84
53667;BMP280;39568;51.026;5.468;2023-08-17T01:34:03;101020.25;;;19.68
53667;BMP280;39568;51.026;5.468;2023-08-17T01:36:35;101023.47;;;19.74
53667;BMP280;39568;51.026;5.468;2023-08-17T01:39:05;101017.69;;;19.85
53667;BMP280;39568;51.026;5.468;2023-08-17T01:41:34;101017.69;;;19.85
53667;BMP280;39568;51.026;5.468;2023-08-17T01:44:01;101026.31;;;19.83
53667;BMP280;39568;51.026;5.468;2023-08-17T01:46:30;101017.69;;;19.85
53667;BMP280;39568;51.026;5.468;2023-08-17T01:48:57;101014.81;;;19.75
53667;BMP280;39568;51.026;5.468;2023-08-17T01:51:24;101012.34;;;19.62
53667;BMP280;39568;51.026;5.468;2023-08-17T01:53:51;101009.81;;;19.57
53667;BMP280;39568;51.026;5.468;2023-08-17T01:56:19;101010.16;;;19.61
53667;BMP280;39568;51.026;5.468;2023-08-17T01:58:46;101014.34;;;19.47
53667;BMP280;39568;51.026;5.468;2023-08-17T02:01:13;101010.75;;;19.52
53667;BMP280;39568;51.026;5.468;2023-08-17T02:03:39;101010.38;;;19.55
53667;BMP280;39568;51.026;5.468;2023-08-17T02:06:06;101009.84;;;19.49
53667;BMP280;39568;51.026;5.468;2023-08-17T02:08:33;101012.38;;;19.55
53667;BMP280;39568;51.026;5.468;2023-08-17T02:11:00;101009.28;;;19.51
53667;BMP280;39568;51.026;5.468;2023-08-17T02:13:28;101017.41;;;19.58
53667;BMP280;39568;51.026;5.468;2023-08-17T02:15:54;101018.47;;;19.63
53667;BMP280;39568;51.026;5.468;2023-08-17T02:18:21;101015.56;;;19.61
53667;BMP280;39568;51.026;5.468;2023-08-17T02:20:47;101014.88;;;19.53
53667;BMP280;39568;51.026;5.468;2023-08-17T02:23:14;101015.44;;;19.44
53667;BMP280;39568;51.026;5.468;2023-08-17T02:25:41;101010.25;;;19.23
53667;BMP280;39568;51.026;5.468;2023-08-17T02:28:07;101009.50;;;19.07
53667;BMP280;39568;51.026;5.468;2023-08-17T02:30:35;101003.03;;;19.18
53667;BMP280;39568;51.026;5.468;2023-08-17T02:33:03;101009.88;;;19.19
53667;BMP280;39568;51.026;5.468;2023-08-17T02:35:30;101002.31;;;19.17
53667;BMP280;39568;51.026;5.468;2023-08-17T02:37:56;101006.59;;;19.20
53667;BMP280;39568;51.026;5.468;2023-08-17T02:40:23;101003.38;;;19.29
53667;BMP280;39568;51.026;5.468;2023-08-17T02:42:49;101001.06;;;19.18
53667;BMP280;39568;51.026;5.468;2023-08-17T02:45:16;101003.75;;;19.18
53667;BMP280;39568;51.026;5.468;2023-08-17T02:47:44;101005.56;;;19.23
53667;BMP280;39568;51.026;5.468;2023-08-17T02:50:11;101007.69;;;19.33
53667;BMP280;39568;51.026;5.468;2023-08-17T02:52:38;100996.72;;;19.38
53667;BMP280;39568;51.026;5.468;2023-08-17T02:55:06;101002.84;;;19.39
53667;BMP280;39568;51.026;5.468;2023-08-17T02:57:32;100989.72;;;19.27
53667;BMP280;39568;51.026;5.468;2023-08-17T02:59:59;100993.66;;;19.34
53667;BMP280;39568;51.026;5.468;2023-08-17T03:02:26;100985.75;;;19.28
53667;BMP280;39568;51.026;5.468;2023-08-17T03:04:54;100989.72;;;19.35
53667;BMP280;39568;51.026;5.468;2023-08-17T03:07:20;100994.56;;;19.29
53667;BMP280;39568;51.026;5.468;2023-08-17T03:09:47;100999.06;;;19.34
53667;BMP280;39568;51.026;5.468;2023-08-17T03:12:14;100994.94;;;19.33
53667;BMP280;39568;51.026;5.468;2023-08-17T03:14:40;100992.59;;;19.14
53667;BMP280;39568;51.026;5.468;2023-08-17T03:17:07;100987.59;;;19.11
53667;BMP280;39568;51.026;5.468;2023-08-17T03:19:33;100989.03;;;19.19
53667;BMP280;39568;51.026;5.468;2023-08-17T03:22:01;100990.09;;;19.16
53667;BMP280;39568;51.026;5.468;2023-08-17T03:24:28;100989.00;;;19.12
53667;BMP280;39568;51.026;5.468;2023-08-17T03:26:55;100989.34;;;18.93
53667;BMP280;39568;51.026;5.468;2023-08-17T03:29:21;100974.97;;;18.91
53667;BMP280;39568;51.026;5.468;2023-08-17T03:31:49;100980.59;;;18.93
53667;BMP280;39568;51.026;5.468;2023-08-17T03:34:16;100969.59;;;19.06
53667;BMP280;39568;51.026;5.468;2023-08-17T03:36:42;100981.47;;;19.10
53667;BMP280;39568;51.026;5.468;2023-08-17T03:39:10;100970.84;;;18.97
53667;BMP280;39568;51.026;5.468;2023-08-17T03:41:37;100977.16;;;19.00
53667;BMP280;39568;51.026;5.468;2023-08-17T03:44:04;100993.31;;;19.07
53667;BMP280;39568;51.026;5.468;2023-08-17T03:46:32;100986.47;;;19.06
53667;BMP280;39568;51.026;5.468;2023-08-17T03:48:59;100982.16;;;19.03
53667;BMP280;39568;51.026;5.468;2023-08-17T03:51:25;100987.94;;;19.07
53667;BMP280;39568;51.026;5.468;2023-08-17T03:53:52;100992.25;;;19.10
53667;BMP280;39568;51.026;5.468;2023-08-17T03:56:20;100990.06;;;19.09
53667;BMP280;39568;51.026;5.468;2023-08-17T03:58:47;100993.31;;;19.07
53667;BMP280;39568;51.026;5.468;2023-08-17T04:01:13;100998.72;;;19.00
53667;BMP280;39568;51.026;5.468;2023-08-17T04:03:40;101006.97;;;18.94
53667;BMP280;39568;51.026;5.468;2023-08-17T04:06:07;100999.75;;;18.89
53667;BMP280;39568;51.026;5.468;2023-08-17T04:08:35;100999.44;;;18.85
53667;BMP280;39568;51.026;5.468;2023-08-17T04:11:02;101003.56;;;19.01
53667;BMP280;39568;51.026;5.468;2023-08-17T04:13:30;101012.38;;;18.79
53667;BMP280;39568;51.026;5.468;2023-08-17T04:15:57;101011.09;;;18.80
53667;BMP280;39568;51.026;5.468;2023-08-17T04:18:24;101010.72;;;18.76
53667;BMP280;39568;51.026;5.468;2023-08-17T04:20:51;101015.91;;;18.67
53667;BMP280;39568;51.026;5.468;2023-08-17T04:23:17;101015.56;;;18.70
53667;BMP280;39568;51.026;5.468;2023-08-17T04:25:44;101014.81;;;18.62
53667;BMP280;39568;51.026;5.468;2023-08-17T04:28:11;101017.88;;;18.66
53667;BMP280;39568;51.026;5.468;2023-08-17T04:30:39;101022.75;;;18.75
53667;BMP280;39568;51.026;5.468;2023-08-17T04:33:06;101023.16;;;18.79
53667;BMP280;39568;51.026;5.468;2023-08-17T04:35:33;101020.78;;;18.68
53667;BMP280;39568;51.026;5.468;2023-08-17T04:38:00;101027.41;;;18.67
53667;BMP280;39568;51.026;5.468;2023-08-17T04:40:27;101020.97;;;18.70
53667;BMP280;39568;51.026;5.468;2023-08-17T04:42:53;101031.94;;;18.72
53667;BMP280;39568;51.026;5.468;2023-08-17T04:45:20;101032.13;;;18.74
53667;BMP280;39568;51.026;5.468;2023-08-17T04:47:48;101029.09;;;18.85
53667;BMP280;39568;51.026;5.468;2023-08-17T04:50:15;101032.66;;;18.65
53667;BMP280;39568;51.026;5.468;2023-08-17T04:52:42;101031.00;;;18.62
53667;BMP280;39568;51.026;5.468;2023-08-17T04:55:09;101030.63;;;18.58
53667;BMP280;39568;51.026;5.468;2023-08-17T04:57:36;101022.75;;;18.60
53667;BMP280;39568;51.026;5.468;2023-08-17T05:00:03;101021.47;;;18.46
53667;BMP280;39568;51.026;5.468;2023-08-17T05:02:34;101029.19;;;18.57
53667;BMP280;39568;51.026;5.468;2023-08-17T05:05:05;101032.97;;;18.54
53667;BMP280;39568;51.026;5.468;2023-08-17T05:07:32;101024.31;;;18.48
53667;BMP280;39568;51.026;5.468;2023-08-17T05:09:59;101028.44;;;18.41
53667;BMP280;39568;51.026;5.468;2023-08-17T05:12:26;101018.88;;;18.33
53667;BMP280;39568;51.026;5.468;2023-08-17T05:14:53;101024.81;;;18.39
53667;BMP280;39568;51.026;5.468;2023-08-17T05:17:19;101022.44;;;18.28
53667;BMP280;39568;51.026;5.468;2023-08-17T05:19:46;101021.59;;;18.33
53667;BMP280;39568;51.026;5.468;2023-08-17T05:22:14;101030.09;;;18.16
53667;BMP280;39568;51.026;5.468;2023-08-17T05:24:40;101024.78;;;18.24
53667;BMP280;39568;51.026;5.468;2023-08-17T05:27:07;101030.91;;;18.32
53667;BMP280;39568;51.026;5.468;2023-08-17T05:29:34;101027.28;;;18.22
53667;BMP280;39568;51.026;5.468;2023-08-17T05:32:01;101026.03;;;18.23
53667;BMP280;39568;51.026;5.468;2023-08-17T05:34:28;101040.75;;;18.22
53667;BMP280;39568;51.026;5.468;2023-08-17T05:36:55;101038.13;;;18.37
53667;BMP280;39568;51.026;5.468;2023-08-17T05:39:23;101033.59;;;18.32
53667;BMP280;39568;51.026;5.468;2023-08-17T05:41:49;101042.66;;;18.42
53667;BMP280;39568;51.026;5.468;2023-08-17T05:44:17;101042.28;;;18.45
53667;BMP280;39568;51.026;5.468;2023-08-17T05:46:43;101040.16;;;18.67
53667;BMP280;39568;51.026;5.468;2023-08-17T05:49:10;101039.22;;;18.41
53667;BMP280;39568;51.026;5.468;2023-08-17T05:51:37;101035.69;;;18.62
53667;BMP280;39568;51.026;5.468;2023-08-17T05:54:04;101039.97;;;18.57
53667;BMP280;39568;51.026;5.468;2023-08-17T05:56:34;101041.75;;;18.55
53667;BMP280;39568;51.026;5.468;2023-08-17T05:59:00;101041.41;;;18.58
53667;BMP280;39568;51.026;5.468;2023-08-17T06:01:27;101051.84;;;18.62
53667;BMP280;39568;51.026;5.468;2023-08-17T06:03:54;101048.44;;;18.61
53667;BMP280;39568;51.026;5.468;2023-08-17T06:06:20;101052.09;;;18.28
53667;BMP280;39568;51.026;5.468;2023-08-17T06:08:47;101048.53;;;18.33
53667;BMP280;39568;51.026;5.468;2023-08-17T06:11:13;101049.16;;;18.54
53667;BMP280;39568;51.026;5.468;2023-08-17T06:13:41;101056.09;;;18.42
53667;BMP280;39568;51.026;5.468;2023-08-17T06:16:08;101046.28;;;18.60
53667;BMP280;39568;51.026;5.468;2023-08-17T06:18:36;101047.16;;;18.62
53667;BMP280;39568;51.026;5.468;2023-08-17T06:21:03;101053.31;;;18.70
53667;BMP280;39568;51.026;5.468;2023-08-17T06:23:30;101046.66;;;18.71
53667;BMP280;39568;51.026;5.468;2023-08-17T06:25:57;101044.59;;;18.41
53667;BMP280;39568;51.026;5.468;2023-08-17T06:28:24;101038.91;;;18.60
53667;BMP280;39568;51.026;5.468;2023-08-17T06:30:53;101043.44;;;18.73
53667;BMP280;39568;51.026;5.468;2023-08-17T06:33:20;101036.00;;;18.58
53667;BMP280;39568;51.026;5.468;2023-08-17T06:35:46;101042.03;;;18.87
53667;BMP280;39568;51.026;5.468;2023-08-17T06:38:13;101038.09;;;19.03
53667;BMP280;39568;51.026;5.468;2023-08-17T06:40:40;101038.44;;;18.99
53667;BMP280;39568;51.026;5.468;2023-08-17T06:43:07;101045.81;;;18.99
53667;BMP280;39568;51.026;5.468;2023-08-17T06:45:34;101051.22;;;19.06
53667;BMP280;39568;51.026;5.468;2023-08-17T06:48:02;101048.38;;;19.19
53667;BMP280;39568;51.026;5.468;2023-08-17T06:50:29;101059.16;;;19.50
53667;BMP280;39568;51.026;5.468;2023-08-17T06:52:55;101061.09;;;19.57
53667;BMP280;39568;51.026;5.468;2023-08-17T06:55:22;101053.34;;;19.68
53667;BMP280;39568;51.026;5.468;2023-08-17T06:57:49;101056.41;;;19.80
53667;BMP280;39568;51.026;5.468;2023-08-17T07:00:17;101060.56;;;19.81
53667;BMP280;39568;51.026;5.468;2023-08-17T07:02:45;101058.38;;;19.64
53667;BMP280;39568;51.026;5.468;2023-08-17T07:05:14;101059.28;;;19.82
53667;BMP280;39568;51.026;5.468;2023-08-17T07:07:40;101067.34;;;19.97
53667;BMP280;39568;51.026;5.468;2023-08-17T07:10:08;101073.94;;;20.11
53667;BMP280;39568;51.026;5.468;2023-08-17T07:12:34;101072.66;;;20.27
53667;BMP280;39568;51.026;5.468;2023-08-17T07:15:01;101073.63;;;20.47
53667;BMP280;39568;51.026;5.468;2023-08-17T07:17:28;101074.16;;;20.77
53667;BMP280;39568;51.026;5.468;2023-08-17T07:19:55;101071.69;;;20.72
53667;BMP280;39568;51.026;5.468;2023-08-17T07:22:23;101071.91;;;20.66
53667;BMP280;39568;51.026;5.468;2023-08-17T07:24:50;101075.19;;;20.89
53667;BMP280;39568;51.026;5.468;2023-08-17T07:27:16;101082.91;;;20.93
53667;BMP280;39568;51.026;5.468;2023-08-17T07:29:43;101080.94;;;20.93
53667;BMP280;39568;51.026;5.468;2023-08-17T07:32:10;101083.25;;;20.97
53667;BMP280;39568;51.026;5.468;2023-08-17T07:34:36;101086.50;;;21.20
53667;BMP280;39568;51.026;5.468;2023-08-17T07:37:04;101085.72;;;21.02
53667;BMP280;39568;51.026;5.468;2023-08-17T07:39:33;101086.38;;;20.86
53667;BMP280;39568;51.026;5.468;2023-08-17T07:41:59;101084.84;;;21.00
53667;BMP280;39568;51.026;5.468;2023-08-17T07:44:26;101086.34;;;21.35
53667;BMP280;39568;51.026;5.468;2023-08-17T07:46:54;101088.47;;;21.44
53667;BMP280;39568;51.026;5.468;2023-08-17T07:49:20;101091.88;;;21.45
53667;BMP280;39568;51.026;5.468;2023-08-17T07:51:48;101088.66;;;20.72
53667;BMP280;39568;51.026;5.468;2023-08-17T07:54:15;101086.63;;;20.80
53667;BMP280;39568;51.026;5.468;2023-08-17T07:56:43;101083.03;;;21.02
53667;BMP280;39568;51.026;5.468;2023-08-17T07:59:09;101079.31;;;20.90
53667;BMP280;39568;51.026;5.468;2023-08-17T08:01:36;101076.44;;;20.88
53667;BMP280;39568;51.026;5.468;2023-08-17T08:04:05;101085.50;;;20.83
53667;BMP280;39568;51.026;5.468;2023-08-17T08:06:32;101085.16;;;20.79
53667;BMP280;39568;51.026;5.468;2023-08-17T08:08:59;101076.44;;;20.88
53667;BMP280;39568;51.026;5.468;2023-08-17T08:11:25;101087.22;;;21.21
53667;BMP280;39568;51.026;5.468;2023-08-17T08:13:56;101088.59;;;21.29
53667;BMP280;39568;51.026;5.468;2023-08-17T08:16:23;101084.09;;;21.49
53667;BMP280;39568;51.026;5.468;2023-08-17T08:18:50;101083.41;;;21.65
53667;BMP280;39568;51.026;5.468;2023-08-17T08:21:16;101086.81;;;21.49
53667;BMP280;39568;51.026;5.468;2023-08-17T08:23:43;101079.03;;;21.28
53667;BMP280;39568;51.026;5.468;2023-08-17T08:26:10;101082.75;;;21.57
53667;BMP280;39568;51.026;5.468;2023-08-17T08:28:36;101083.47;;;21.75
53667;BMP280;39568;51.026;5.468;2023-08-17T08:31:04;101082.59;;;21.89
53667;BMP280;39568;51.026;5.468;2023-08-17T08:33:31;101075.25;;;22.00
53667;BMP280;39568;51.026;5.468;2023-08-17T08:35:58;101078.88;;;21.85
53667;BMP280;39568;51.026;5.468;2023-08-17T08:38:24;101081.63;;;21.60
53667;BMP280;39568;51.026;5.468;2023-08-17T08:40:51;101071.19;;;21.57
53667;BMP280;39568;51.026;5.468;2023-08-17T08:43:18;101068.63;;;21.93
53667;BMP280;39568;51.026;5.468;2023-08-17T08:45:46;101061.97;;;22.47
53667;BMP280;39568;51.026;5.468;2023-08-17T08:48:18;101057.00;;;22.90
53667;BMP280;39568;51.026;5.468;2023-08-17T08:50:46;101056.69;;;22.86
53667;BMP280;39568;51.026;5.468;2023-08-17T08:53:14;101056.84;;;22.51
53667;BMP280;39568;51.026;5.468;2023-08-17T08:55:46;101064.91;;;23.14
53667;BMP280;39568;51.026;5.468;2023-08-17T08:58:15;101055.06;;;23.28
53667;BMP280;39568;51.026;5.468;2023-08-17T09:00:46;101055.34;;;23.61
53667;BMP280;39568;51.026;5.468;2023-08-17T09:03:13;101058.56;;;22.93
53667;BMP280;39568;51.026;5.468;2023-08-17T09:05:44;101053.63;;;23.18
53667;BMP280;39568;51.026;5.468;2023-08-17T09:08:12;101059.09;;;23.46
53667;BMP280;39568;51.026;5.468;2023-08-17T09:10:40;101062.88;;;22.59
53667;BMP280;39568;51.026;5.468;2023-08-17T09:13:07;101065.94;;;22.20
53667;BMP280;39568;51.026;5.468;2023-08-17T09:15:34;101063.88;;;22.28
53667;BMP280;39568;51.026;5.468;2023-08-17T09:18:01;101057.88;;;22.56
53667;BMP280;39568;51.026;5.468;2023-08-17T09:20:41;101059.41;;;22.95
53667;BMP280;39568;51.026;5.468;2023-08-17T09:23:13;101061.34;;;23.21
53667;BMP280;39568;51.026;5.468;2023-08-17T09:25:40;101063.13;;;23.00
53667;BMP280;39568;51.026;5.468;2023-08-17T09:28:08;101054.53;;;22.21
53667;BMP280;39568;51.026;5.468;2023-08-17T09:30:49;101055.09;;;21.93
53667;BMP280;39568;51.026;5.468;2023-08-17T09:33:17;101059.38;;;22.76
53667;BMP280;39568;51.026;5.468;2023-08-17T09:35:43;101050.50;;;23.31
53667;BMP280;39568;51.026;5.468;2023-08-17T09:38:11;101043.06;;;23.50
53667;BMP280;39568;51.026;5.468;2023-08-17T09:40:39;101047.88;;;22.58
53667;BMP280;39568;51.026;5.468;2023-08-17T09:43:05;101042.03;;;22.98
53667;BMP280;39568;51.026;5.468;2023-08-17T09:45:32;101044.44;;;23.04
53667;BMP280;39568;51.026;5.468;2023-08-17T09:47:59;101038.97;;;22.12
53667;BMP280;39568;51.026;5.468;2023-08-17T09:50:26;101039.91;;;23.16
53667;BMP280;39568;51.026;5.468;2023-08-17T09:52:53;101038.81;;;24.16
53667;BMP280;39568;51.026;5.468;2023-08-17T09:55:21;101038.03;;;25.29
53667;BMP280;39568;51.026;5.468;2023-08-17T09:57:49;101035.31;;;25.73
53667;BMP280;39568;51.026;5.468;2023-08-17T10:00:17;101049.88;;;25.33
53667;BMP280;39568;51.026;5.468;2023-08-17T10:02:44;101049.22;;;25.44
53667;BMP280;39568;51.026;5.468;2023-08-17T10:05:12;101055.78;;;25.30
53667;BMP280;39568;51.026;5.468;2023-08-17T10:07:40;101061.88;;;25.19
53667;BMP280;39568;51.026;5.468;2023-08-17T10:10:09;101051.59;;;24.96
53667;BMP280;39568;51.026;5.468;2023-08-17T10:12:42;101056.72;;;24.50
53667;BMP280;39568;51.026;5.468;2023-08-17T10:15:11;101046.22;;;24.35
53667;BMP280;39568;51.026;5.468;2023-08-17T10:17:43;101040.78;;;24.35
53667;BMP280;39568;51.026;5.468;2023-08-17T10:20:11;101044.31;;;24.37
53667;BMP280;39568;51.026;5.468;2023-08-17T10:22:42;101044.09;;;24.54
53667;BMP280;39568;51.026;5.468;2023-08-17T10:25:11;101042.94;;;24.57
53667;BMP280;39568;51.026;5.468;2023-08-17T10:27:40;101046.88;;;24.35
53667;BMP280;39568;51.026;5.468;2023-08-17T10:30:09;101043.81;;;24.81
53667;BMP280;39568;51.026;5.468;2023-08-17T10:32:36;101043.09;;;25.23
53667;BMP280;39568;51.026;5.468;2023-08-17T10:35:04;101045.81;;;25.23
53667;BMP280;39568;51.026;5.468;2023-08-17T10:37:32;101042.84;;;24.98
53667;BMP280;39568;51.026;5.468;2023-08-17T10:39:59;101038.72;;;24.87
53667;BMP280;39568;51.026;5.468;2023-08-17T10:42:33;101038.50;;;24.22
53667;BMP280;39568;51.026;5.468;2023-08-17T10:45:25;101039.00;;;23.04
53667;BMP280;39568;51.026;5.468;2023-08-17T10:47:59;101037.66;;;23.41
53667;BMP280;39568;51.026;5.468;2023-08-17T10:50:26;101043.31;;;23.73
53667;BMP280;39568;51.026;5.468;2023-08-17T10:52:53;101055.50;;;23.82
53667;BMP280;39568;51.026;5.468;2023-08-17T10:55:35;101056.25;;;24.23
53667;BMP280;39568;51.026;5.468;2023-08-17T10:58:02;101051.66;;;24.25
53667;BMP280;39568;51.026;5.468;2023-08-17T11:00:34;101059.28;;;24.08
53667;BMP280;39568;51.026;5.468;2023-08-17T11:03:04;101059.75;;;23.95
53667;BMP280;39568;51.026;5.468;2023-08-17T11:05:40;101058.56;;;24.47
53667;BMP280;39568;51.026;5.468;2023-08-17T11:08:10;101063.19;;;24.75
53667;BMP280;39568;51.026;5.468;2023-08-17T11:10:39;101073.47;;;24.98
53667;BMP280;39568;51.026;5.468;2023-08-17T11:13:07;101067.59;;;25.02
53667;BMP280;39568;51.026;5.468;2023-08-17T11:15:39;101068.50;;;25.16
53667;BMP280;39568;51.026;5.468;2023-08-17T11:18:08;101062.41;;;25.06
53667;BMP280;39568;51.026;5.468;2023-08-17T11:20:36;101059.09;;;24.25
53667;BMP280;39568;51.026;5.468;2023-08-17T11:23:04;101060.44;;;24.75
53667;BMP280;39568;51.026;5.468;2023-08-17T11:25:31;101061.84;;;24.15
53667;BMP280;39568;51.026;5.468;2023-08-17T11:28:00;101059.47;;;24.40
53667;BMP280;39568;51.026;5.468;2023-08-17T11:30:27;101065.41;;;24.18
53667;BMP280;39568;51.026;5.468;2023-08-17T11:32:56;101062.34;;;23.93
53667;BMP280;39568;51.026;5.468;2023-08-17T11:35:23;101070.75;;;24.46
53667;BMP280;39568;51.026;5.468;2023-08-17T11:37:49;101076.28;;;25.10
53667;BMP280;39568;51.026;5.468;2023-08-17T11:40:16;101077.34;;;25.58
53667;BMP280;39568;51.026;5.468;2023-08-17T11:42:44;101075.50;;;24.98
53667;BMP280;39568;51.026;5.468;2023-08-17T11:45:12;101075.44;;;24.55
53667;BMP280;39568;51.026;5.468;2023-08-17T11:47:39;101075.97;;;25.15
53667;BMP280;39568;51.026;5.468;2023-08-17T11:50:09;101076.03;;;25.06
53667;BMP280;39568;51.026;5.468;2023-08-17T11:52:36;101070.00;;;25.07
53667;BMP280;39568;51.026;5.468;2023-08-17T11:55:04;101069.13;;;24.62
53667;BMP280;39568;51.026;5.468;2023-08-17T11:57:31;101072.59;;;25.05
53667;BMP280;39568;51.026;5.468;2023-08-17T11:59:59;101063.13;;;25.27
53667;BMP280;39568;51.026;5.468;2023-08-17T12:02:27;101066.16;;;25.22
53667;BMP280;39568;51.026;5.468;2023-08-17T12:04:55;101069.34;;;25.18
53667;BMP280;39568;51.026;5.468;2023-08-17T12:07:23;101069.56;;;25.11
53667;BMP280;39568;51.026;5.468;2023-08-17T12:09:51;101056.69;;;25.44
53667;BMP280;39568;51.026;5.468;2023-08-17T12:12:19;101055.31;;;25.54
53667;BMP280;39568;51.026;5.468;2023-08-17T12:14:48;101067.28;;;25.07
53667;BMP280;39568;51.026;5.468;2023-08-17T12:17:15;101065.88;;;25.39
53667;BMP280;39568;51.026;5.468;2023-08-17T12:19:43;101064.16;;;25.55
53667;BMP280;39568;51.026;5.468;2023-08-17T12:22:10;101061.56;;;25.57
53667;BMP280;39568;51.026;5.468;2023-08-17T12:24:40;101065.66;;;25.79
53667;BMP280;39568;51.026;5.468;2023-08-17T12:27:07;101058.56;;;25.85
53667;BMP280;39568;51.026;5.468;2023-08-17T12:29:34;101065.09;;;25.92
53667;BMP280;39568;51.026;5.468;2023-08-17T12:32:01;101057.28;;;25.87
53667;BMP280;39568;51.026;5.468;2023-08-17T12:34:28;101063.94;;;26.07
53667;BMP280;39568;51.026;5.468;2023-08-17T12:36:54;101063.94;;;25.95
53667;BMP280;39568;51.026;5.468;2023-08-17T12:39:21;101056.81;;;26.02
53667;BMP280;39568;51.026;5.468;2023-08-17T12:41:49;101052.56;;;26.10
53667;BMP280;39568;51.026;5.468;2023-08-17T12:44:16;101053.94;;;26.11
53667;BMP280;39568;51.026;5.468;2023-08-17T12:46:44;101038.66;;;25.83
53667;BMP280;39568;51.026;5.468;2023-08-17T12:49:10;101044.00;;;24.95
53667;BMP280;39568;51.026;5.468;2023-08-17T12:51:37;101038.94;;;25.54
53667;BMP280;39568;51.026;5.468;2023-08-17T12:54:04;101040.28;;;25.88
53667;BMP280;39568;51.026;5.468;2023-08-17T12:56:31;101052.66;;;26.12
53667;BMP280;39568;51.026;5.468;2023-08-17T12:58:59;101044.25;;;26.31
53667;BMP280;39568;51.026;5.468;2023-08-17T13:01:26;101050.19;;;26.39
53667;BMP280;39568;51.026;5.468;2023-08-17T13:03:52;101049.69;;;26.31
53667;BMP280;39568;51.026;5.468;2023-08-17T13:06:19;101042.00;;;26.28
53667;BMP280;39568;51.026;5.468;2023-08-17T13:08:46;101028.22;;;25.79
53667;BMP280;39568;51.026;5.468;2023-08-17T13:11:12;101035.13;;;26.04
53667;BMP280;39568;51.026;5.468;2023-08-17T13:13:39;101030.47;;;26.52
53667;BMP280;39568;51.026;5.468;2023-08-17T13:16:07;101032.28;;;26.84
53667;BMP280;39568;51.026;5.468;2023-08-17T13:18:34;101026.53;;;27.04
53667;BMP280;39568;51.026;5.468;2023-08-17T13:21:00;101023.91;;;27.31
53667;BMP280;39568;51.026;5.468;2023-08-17T13:23:27;101029.81;;;27.39
53667;BMP280;39568;51.026;5.468;2023-08-17T13:25:54;101027.16;;;26.90
53667;BMP280;39568;51.026;5.468;2023-08-17T13:28:20;101028.25;;;27.61
53667;BMP280;39568;51.026;5.468;2023-08-17T13:30:47;101022.09;;;27.87
53667;BMP280;39568;51.026;5.468;2023-08-17T13:33:15;101020.41;;;28.07
53667;BMP280;39568;51.026;5.468;2023-08-17T13:35:43;101017.25;;;28.40
53667;BMP280;39568;51.026;5.468;2023-08-17T13:38:09;101012.22;;;28.64
53667;BMP280;39568;51.026;5.468;2023-08-17T13:40:36;101010.91;;;27.18
53667;BMP280;39568;51.026;5.468;2023-08-17T13:43:04;101017.03;;;26.68
53667;BMP280;39568;51.026;5.468;2023-08-17T13:45:37;101018.75;;;27.37
53667;BMP280;39568;51.026;5.468;2023-08-17T13:48:04;101016.31;;;27.68
53667;BMP280;39568;51.026;5.468;2023-08-17T13:50:33;101016.03;;;27.89
53667;BMP280;39568;51.026;5.468;2023-08-17T13:52:59;101017.41;;;27.90
53667;BMP280;39568;51.026;5.468;2023-08-17T13:55:26;101016.03;;;27.89
53667;BMP280;39568;51.026;5.468;2023-08-17T13:57:54;101018.00;;;27.23